Time;durP1;ratioP1;P1;durP2;ratioP2;P2;SDS_P1;SDS_P2;PMS_P1;PMS_P2;Temp;Humidity;BMP_temperature;BMP_pressure;BME280_temperature;BME280_humidity;BME280_pressure;Samples;Min_cycle;Max_cycle;Signal;HPM_P1;HPM_P2
2022/12/11 00:01:11;;;;;;;5.00;3.88;;;;;;;19.45;51.27;95797.53;10496204;28;20048;-58
2022/12/11 00:06:31;;;;;;;5.40;4.03;;;;;;;19.45;51.28;95789.44;10496109;28;20113;-58
2022/12/11 00:11:50;;;;;;;5.38;3.70;;;;;;;19.41;51.27;95783.94;10495803;28;20055;-58
2022/12/11 00:17:09;;;;;;;6.45;3.78;;;;;;;19.41;51.24;95780.44;10496082;28;20064;-56
2022/12/11 00:22:29;;;;;;;5.20;3.75;;;;;;;19.39;51.33;95780.78;10495662;28;20052;-57
2022/12/11 00:27:49;;;;;;;4.18;3.78;;;;;;;19.38;50.94;95791.94;10495859;28;20469;-58
2022/12/11 00:33:09;;;;;;;6.40;3.80;;;;;;;19.36;51.02;95790.34;10503112;28;20052;-57
2022/12/11 00:38:28;;;;;;;4.38;3.60;;;;;;;19.35;50.92;95801.53;10503484;28;20044;-55
2022/12/11 00:43:48;;;;;;;4.55;3.55;;;;;;;19.34;50.82;95803.41;10517201;28;20037;-58
2022/12/11 00:49:07;;;;;;;5.43;3.65;;;;;;;19.32;50.70;95794.09;10503212;28;20056;-58
2022/12/11 00:54:27;;;;;;;4.10;3.33;;;;;;;19.31;50.92;95795.25;10503408;28;20063;-58
2022/12/11 00:59:46;;;;;;;4.50;3.58;;;;;;;19.30;50.76;95816.06;10516844;28;20051;-57
2022/12/11 01:05:06;;;;;;;4.57;3.33;;;;;;;19.27;50.86;95819.47;10497968;28;20044;-57
2022/12/11 01:10:26;;;;;;;3.95;3.55;;;;;;;19.28;50.72;95828.34;10515970;28;20426;-58
2022/12/11 01:15:45;;;;;;;5.18;3.70;;;;;;;19.27;50.70;95815.97;10515664;28;20114;-58
2022/12/11 01:21:09;;;;;;;4.40;3.45;;;;;;;19.24;50.68;95809.34;10501429;28;20047;-58
2022/12/11 01:26:29;;;;;;;5.22;3.50;;;;;;;19.23;50.62;95809.69;10486562;28;20052;-56
2022/12/11 01:31:49;;;;;;;3.92;3.35;;;;;;;19.22;50.71;95827.03;10500808;28;20526;-58
2022/12/11 01:37:08;;;;;;;5.45;3.60;;;;;;;19.21;50.62;95831.66;10501243;28;20052;-58
2022/12/11 01:42:28;;;;;;;4.18;3.40;;;;;;;19.20;50.64;95815.78;10498275;28;20106;-58
2022/12/11 01:47:48;;;;;;;4.10;3.70;;;;;;;19.19;50.48;95820.41;10501191;28;20052;-57
2022/12/11 01:53:11;;;;;;;4.00;3.30;;;;;;;19.16;50.52;95823.78;10499144;28;20547;-58
2022/12/11 01:58:36;;;;;;;4.13;3.03;;;;;;;19.15;50.56;95816.81;10499433;28;20396;-57
2022/12/11 02:03:55;;;;;;;3.97;2.92;;;;;;;19.14;50.49;95817.94;10502732;28;20041;-47
2022/12/11 02:09:18;;;;;;;3.95;2.75;;;;;;;19.11;50.49;95811.31;10500365;28;20053;-48
2022/12/11 02:14:49;;;;;;;4.10;3.17;;;;;;;19.10;50.43;95828.66;10499519;28;20056;-47
2022/12/11 02:20:15;;;;;;;3.60;3.30;;;;;;;19.10;50.40;95817.06;10495192;28;20048;-46
2022/12/11 02:26:12;;;;;;;3.30;2.80;;;;;;;19.08;50.23;95811.22;10494766;28;20052;-47
2022/12/11 02:31:37;;;;;;;3.72;3.03;;;;;;;19.07;50.23;95809.66;10499582;28;20044;-47
2022/12/11 02:37:01;;;;;;;3.78;3.10;;;;;;;19.05;50.30;95820.81;10483687;28;20059;-48
2022/12/11 02:42:22;;;;;;;3.30;2.97;;;;;;;19.04;50.18;95816.53;10483115;28;20061;-50
2022/12/11 02:47:43;;;;;;;4.00;3.28;;;;;;;19.03;50.17;95814.16;10498605;28;20060;-47
2022/12/11 02:53:05;;;;;;;3.47;3.03;;;;;;;19.01;50.24;95806.41;10483347;28;20052;-48
2022/12/11 02:58:29;;;;;;;3.25;2.95;;;;;;;19.00;49.99;95809.47;10482814;28;20488;-49
2022/12/11 03:03:48;;;;;;;3.22;2.85;;;;;;;19.00;49.97;95809.47;10489187;28;20052;-49
2022/12/11 03:09:08;;;;;;;4.50;3.00;;;;;;;18.97;50.04;95813.63;10511314;28;20040;-50
2022/12/11 03:14:28;;;;;;;3.33;3.03;;;;;;;18.96;49.98;95817.47;10497547;28;20052;-50
2022/12/11 03:19:50;;;;;;;3.85;2.80;;;;;;;18.96;50.10;95825.56;10488747;28;20056;-48
2022/12/11 03:25:15;;;;;;;3.20;2.88;;;;;;;18.94;49.99;95830.53;10498927;28;20045;-49
2022/12/11 03:30:35;;;;;;;3.30;3.00;;;;;;;18.91;49.73;95829.28;10482076;28;20114;-49
2022/12/11 03:35:56;;;;;;;3.00;2.78;;;;;;;18.90;49.91;95835.03;10496656;28;20052;-47
2022/12/11 03:41:17;;;;;;;3.58;2.97;;;;;;;18.89;49.73;95834.22;10496761;28;20438;-48
2022/12/11 03:46:38;;;;;;;3.20;2.90;;;;;;;18.88;49.92;95826.50;10481666;28;20059;-50
2022/12/11 03:51:59;;;;;;;2.90;2.45;;;;;;;18.86;49.82;95824.13;10494627;28;20044;-49
2022/12/11 03:57:20;;;;;;;3.00;2.70;;;;;;;18.85;49.68;95832.56;10496290;28;20052;-48
2022/12/11 04:02:41;;;;;;;2.95;2.63;;;;;;;18.85;49.56;95836.03;10496211;28;20059;-48
2022/12/11 04:08:01;;;;;;;2.92;2.60;;;;;;;18.82;49.70;95819.75;10496002;28;20060;-48
2022/12/11 04:13:20;;;;;;;2.90;2.60;;;;;;;18.81;49.69;95818.19;10495981;28;20060;-49
2022/12/11 04:24:18;;;;;;;3.08;2.47;;;;;;;18.78;49.51;95825.81;10495699;28;20048;-47
2022/12/11 04:29:37;;;;;;;2.67;2.40;;;;;;;18.76;49.60;95817.28;10495905;28;20048;-47
2022/12/11 04:34:56;;;;;;;2.55;2.22;;;;;;;18.74;49.50;95814.13;10495271;28;20048;-51
2022/12/11 04:40:18;;;;;;;2.63;2.42;;;;;;;18.73;49.46;95807.16;10495339;28;20056;-47
2022/12/11 04:45:37;;;;;;;3.13;2.60;;;;;;;18.72;49.26;95799.44;10495275;28;20049;-46
2022/12/11 04:50:56;;;;;;;2.78;2.47;;;;;;;18.71;49.45;95793.22;10494588;28;20067;-47
2022/12/11 04:56:16;;;;;;;2.70;2.50;;;;;;;18.70;49.42;95796.25;10491733;28;20052;-49
2022/12/11 05:01:35;;;;;;;2.78;2.50;;;;;;;18.68;49.40;95799.31;10494464;28;20045;-47
2022/12/11 05:06:55;;;;;;;2.33;2.13;;;;;;;18.67;49.15;95796.97;10488659;28;20068;-48
2022/12/11 05:12:14;;;;;;;2.78;2.58;;;;;;;18.66;49.27;95789.97;10494936;28;20060;-49
2022/12/11 05:17:33;;;;;;;2.22;2.03;;;;;;;18.64;49.18;95790.34;10497637;28;20079;-47
2022/12/11 05:22:53;;;;;;;2.20;2.05;;;;;;;18.63;49.19;95782.59;10515007;28;20056;-50
2022/12/11 05:28:12;;;;;;;2.85;2.50;;;;;;;18.63;49.09;95779.91;10515161;28;20472;-49
2022/12/11 05:33:33;;;;;;;2.33;2.13;;;;;;;18.62;49.13;95789.09;10501666;28;20052;-48
2022/12/11 05:38:53;;;;;;;2.47;2.28;;;;;;;18.60;49.15;95788.66;10501353;28;20045;-49
2022/12/11 05:44:12;;;;;;;2.92;2.08;;;;;;;18.60;49.02;95796.75;10501080;28;20048;-47
2022/12/11 05:49:31;;;;;;;2.08;1.83;;;;;;;18.57;49.01;95792.84;10500738;28;20135;-49
2022/12/11 05:54:51;;;;;;;2.60;2.40;;;;;;;18.54;48.99;95807.78;10513071;28;20408;-48
2022/12/11 06:00:11;;;;;;;2.60;2.40;;;;;;;18.55;49.14;95803.19;10497278;28;20070;-50
2022/12/11 06:05:31;;;;;;;2.45;2.25;;;;;;;18.53;49.03;95814.31;10498030;28;20075;-50
2022/12/11 06:10:50;;;;;;;2.40;2.20;;;;;;;18.51;49.03;95811.16;10510057;28;20097;-48
2022/12/11 06:16:10;;;;;;;2.75;2.30;;;;;;;18.50;48.89;95803.41;10499033;28;20049;-48
2022/12/11 06:21:31;;;;;;;2.35;2.15;;;;;;;18.49;49.01;95812.63;10499903;28;20057;-50
2022/12/11 06:26:51;;;;;;;2.47;1.98;;;;;;;18.46;49.03;95819.47;10493279;28;20052;-48
2022/12/11 06:32:10;;;;;;;2.08;1.88;;;;;;;18.47;49.10;95822.97;10498358;28;20044;-49
2022/12/11 06:37:29;;;;;;;3.00;2.17;;;;;;;18.46;49.29;95824.88;10512525;28;20048;-47
2022/12/11 06:42:49;;;;;;;2.95;1.77;;;;;;;18.46;49.29;95824.09;10498144;28;20055;-50
2022/12/11 06:48:08;;;;;;;1.98;1.88;;;;;;;18.44;49.35;95824.44;10497535;28;20059;-49
2022/12/11 06:53:27;;;;;;;2.08;1.88;;;;;;;18.45;49.39;95825.25;10498305;28;20061;-47
2022/12/11 06:58:47;;;;;;;2.13;1.88;;;;;;;18.44;49.47;95846.00;10497654;28;20056;-47
2022/12/11 07:04:08;;;;;;;2.20;2.00;;;;;;;18.45;49.39;95849.50;10498334;28;20057;-49
2022/12/11 07:09:27;;;;;;;2.00;1.80;;;;;;;18.44;49.43;95837.91;10497382;28;20052;-47
2022/12/11 07:14:47;;;;;;;2.30;1.95;;;;;;;18.43;49.37;95846.38;10496899;28;20040;-46
2022/12/11 07:20:08;;;;;;;2.25;2.05;;;;;;;18.44;49.34;95858.72;10510529;28;20048;-49
2022/12/11 07:25:27;;;;;;;2.10;1.90;;;;;;;18.45;49.44;95855.69;10496684;28;20052;-46
2022/12/11 07:30:47;;;;;;;2.70;1.95;;;;;;;18.47;49.33;95860.75;10497251;28;20060;-49
2022/12/11 07:36:08;;;;;;;2.20;2.00;;;;;;;18.48;49.14;95865.00;10496839;28;20136;-47
2022/12/11 07:41:27;;;;;;;2.17;1.80;;;;;;;18.49;48.92;95861.97;10495455;28;20052;-48
2022/12/11 07:46:47;;;;;;;2.40;1.90;;;;;;;18.51;49.11;95869.72;10495071;28;20491;-46
2022/12/11 07:52:07;;;;;;;2.05;1.95;;;;;;;18.52;48.99;95877.47;10494619;28;20491;-47
2022/12/11 07:57:27;;;;;;;2.20;2.00;;;;;;;18.55;49.09;95865.22;10509757;28;20040;-46
2022/12/11 08:02:47;;;;;;;1.88;1.75;;;;;;;18.57;49.00;95869.13;10495968;28;20056;-50
2022/12/11 08:08:07;;;;;;;2.15;1.95;;;;;;;18.60;49.09;95873.06;10496190;28;20059;-50
2022/12/11 08:13:26;;;;;;;2.22;2.00;;;;;;;18.63;49.00;95877.78;10495874;28;20094;-48
2022/12/11 08:18:47;;;;;;;2.28;2.08;;;;;;;18.65;49.17;95874.75;10493702;28;20094;-49
2022/12/11 08:24:07;;;;;;;3.58;1.90;;;;;;;18.69;49.54;95876.41;10495806;28;20094;-49
2022/12/11 08:29:27;;;;;;;2.33;1.70;;;;;;;18.72;49.27;95875.75;10492389;28;20061;-50
2022/12/11 08:34:47;;;;;;;2.08;1.88;;;;;;;18.75;49.15;95875.06;10484998;28;20049;-48
2022/12/11 08:40:09;;;;;;;2.65;2.03;;;;;;;18.77;49.05;95862.00;10491683;28;20122;-48
2022/12/11 08:45:28;;;;;;;2.35;1.95;;;;;;;18.81;48.99;95867.53;10508159;28;20385;-51
2022/12/11 08:50:48;;;;;;;1.80;1.70;;;;;;;18.86;48.99;95864.63;10497403;28;20056;-48
2022/12/11 08:56:12;;;;;;;3.70;2.10;;;;;;;18.89;49.52;95866.63;10501968;28;20516;-47
2022/12/11 09:01:32;;;;;;;2.22;2.00;;;;;;;18.93;49.74;95864.03;10502731;28;20427;-48
2022/12/11 09:06:51;;;;;;;2.03;1.70;;;;;;;18.95;49.67;95873.38;10494062;28;20114;-46
2022/12/11 09:12:11;;;;;;;2.03;1.70;;;;;;;19.00;49.68;95868.84;10474649;28;20048;-49
2022/12/11 09:17:30;;;;;;;2.00;1.80;;;;;;;19.04;49.37;95867.03;10499751;28;20049;-53
2022/12/11 09:22:50;;;;;;;1.77;1.50;;;;;;;19.09;49.57;95870.28;10501961;28;20056;-55
2022/12/11 09:28:10;;;;;;;1.90;1.60;;;;;;;19.12;49.75;95872.28;10486535;28;20079;-46
2022/12/11 09:33:29;;;;;;;2.20;1.67;;;;;;;19.17;49.85;95880.16;10477250;28;20052;-48
2022/12/11 09:38:49;;;;;;;1.67;1.50;;;;;;;19.21;49.77;95874.84;10501419;28;20114;-51
2022/12/11 09:44:51;;;;;;;1.90;1.70;;;;;;;19.26;49.63;95865.69;10501101;28;20053;-48
2022/12/11 09:50:16;;;;;;;1.92;1.73;;;;;;;19.30;49.51;95855.78;10486112;28;20056;-48
2022/12/11 09:55:54;;;;;;;3.97;1.80;;;;;;;19.33;49.33;95844.31;10500763;28;20400;-48
2022/12/11 10:01:33;;;;;;;1.57;1.47;;;;;;;19.36;49.04;95843.59;10474689;28;20068;-47
2022/12/11 10:07:04;;;;;;;2.92;1.60;;;;;;;19.42;49.08;95844.13;10500378;28;20059;-49
2022/12/11 10:12:26;;;;;;;3.42;1.70;;;;;;;19.45;48.71;95846.16;10499833;28;20056;-48
2022/12/11 10:17:46;;;;;;;65.82;14.95;;;;;;;19.47;47.65;95824.97;10470921;28;20048;-46
2022/12/11 10:23:07;;;;;;;25.67;7.05;;;;;;;19.52;48.52;95839.00;10477305;28;20519;-50
2022/12/11 10:28:27;;;;;;;22.35;5.82;;;;;;;19.56;49.34;95831.78;10472865;28;20099;-48
2022/12/11 10:33:50;;;;;;;245.75;66.80;;;;;;;19.62;50.04;95828.81;10490690;28;20060;-45
2022/12/11 10:39:18;;;;;;;106.88;31.67;;;;;;;19.66;50.60;95830.50;10498705;28;20060;-46
2022/12/11 10:44:37;;;;;;;87.73;26.30;;;;;;;19.68;50.90;95822.81;10497624;28;20056;-46
2022/12/11 10:49:59;;;;;;;79.65;25.15;;;;;;;19.72;51.14;95812.91;10484925;28;20064;-47
2022/12/11 10:55:26;;;;;;;74.00;22.83;;;;;;;19.77;51.74;95805.66;10498240;28;20064;-47
2022/12/11 11:01:06;;;;;;;78.85;21.17;;;;;;;19.77;52.20;95803.75;10474409;28;20048;-46
2022/12/11 11:06:26;;;;;;;67.78;20.73;;;;;;;19.81;52.04;95803.84;10494989;28;20056;-48
2022/12/11 11:11:49;;;;;;;72.72;21.10;;;;;;;19.84;52.49;95795.81;10491261;28;20049;-48
2022/12/11 11:17:13;;;;;;;60.47;18.45;;;;;;;19.89;52.85;95792.84;10497603;28;20060;-49
2022/12/11 11:22:44;;;;;;;58.88;17.27;;;;;;;19.92;52.86;95788.66;10497163;28;20049;-47
2022/12/11 11:28:06;;;;;;;56.25;17.25;;;;;;;19.95;53.02;95787.94;10497104;28;20052;-46
2022/12/11 11:33:26;;;;;;;52.40;17.52;;;;;;;19.98;53.61;95781.06;10495424;28;20052;-49
2022/12/11 11:39:01;;;;;;;61.58;18.17;;;;;;;20.01;53.71;95780.34;10495915;28;20072;-47
2022/12/11 11:44:28;;;;;;;51.25;16.45;;;;;;;20.05;54.27;95778.50;10493054;28;20048;-48
2022/12/11 11:49:55;;;;;;;;;;;;;;;20.08;55.88;95769.72;10484349;28;20140;-49
2022/12/11 11:55:18;;;;;;;80.07;32.03;;;;;;;20.11;55.23;95769.00;10485307;28;19920;-47
2022/12/11 12:00:37;;;;;;;123.53;47.95;;;;;;;20.14;55.06;95766.38;10468909;28;20508;-49
2022/12/11 12:06:32;;;;;;;93.30;40.28;;;;;;;20.18;54.82;95771.09;10495790;28;20049;-47
2022/12/11 12:12:08;;;;;;;27.80;14.32;;;;;;;19.51;35.49;95764.50;10493811;28;20114;-48
2022/12/11 12:17:47;;;;;;;50.05;20.35;;;;;;;19.21;43.95;95760.63;10498601;28;20036;-49
2022/12/11 12:23:41;;;;;;;12.20;8.63;;;;;;;18.21;25.99;95754.06;10473633;28;20098;-46
2022/12/11 12:29:04;;;;;;;9.95;6.75;;;;;;;16.75;30.90;95759.69;10502323;28;20518;-47
2022/12/11 12:34:41;;;;;;;8.07;6.32;;;;;;;17.79;32.74;95754.28;10504167;28;20049;-47
2022/12/11 12:40:22;;;;;;;7.00;4.90;;;;;;;18.50;37.24;95744.06;10496758;28;20057;-47
2022/12/11 12:46:04;;;;;;;7.68;4.38;;;;;;;18.91;37.65;95742.13;10503535;28;20057;-48
2022/12/11 12:51:25;;;;;;;6.65;4.60;;;;;;;19.12;38.32;95744.63;10498543;28;20431;-48
2022/12/11 12:56:46;;;;;;;5.90;4.13;;;;;;;19.25;38.99;95734.50;10502497;28;20053;-48
2022/12/11 13:02:12;;;;;;;5.40;4.10;;;;;;;19.35;39.30;95740.19;10488358;28;20052;-49
2022/12/11 13:07:32;;;;;;;5.95;3.92;;;;;;;19.43;39.59;95741.16;10487704;28;20056;-46
2022/12/11 13:12:52;;;;;;;6.15;3.90;;;;;;;19.49;39.95;95747.09;10502976;28;20060;-46
2022/12/11 13:18:47;;;;;;;6.35;5.55;;;;;;;18.83;25.59;95751.94;10502295;28;20057;-49
2022/12/11 13:24:14;;;;;;;5.80;5.00;;;;;;;17.80;23.53;95755.88;10436720;28;20063;-47
2022/12/11 13:29:41;;;;;;;5.88;5.25;;;;;;;17.22;24.14;95749.78;10502144;28;20052;-47
2022/12/11 13:35:04;;;;;;;4.43;3.90;;;;;;;17.89;31.56;95736.91;10515042;28;20048;-46
2022/12/11 13:40:32;;;;;;;4.35;3.22;;;;;;;18.47;33.01;95736.69;10489368;28;20514;-49
2022/12/11 13:45:55;;;;;;;3.35;3.05;;;;;;;18.80;33.59;95749.16;10485652;28;20052;-48
2022/12/11 13:51:20;;;;;;;4.07;3.08;;;;;;;18.99;33.94;95760.09;10465669;28;20052;-48
2022/12/11 13:56:40;;;;;;;3.50;2.72;;;;;;;19.10;34.47;95766.56;10489402;28;20060;-46
2022/12/11 14:02:11;;;;;;;2.97;2.67;;;;;;;19.21;34.96;95772.25;10480753;28;20059;-49
2022/12/11 14:07:37;;;;;;;4.10;2.67;;;;;;;19.28;35.69;95771.63;10500389;28;20060;-49
2022/12/11 14:13:05;;;;;;;2.95;2.65;;;;;;;19.33;36.16;95769.47;10498003;28;20056;-49
2022/12/11 14:18:29;;;;;;;2.78;2.50;;;;;;;19.36;36.48;95773.38;10499976;28;20059;-47
2022/12/11 14:23:57;;;;;;;3.08;2.53;;;;;;;19.38;36.71;95771.13;10499221;28;20048;-47
2022/12/11 14:29:30;;;;;;;2.63;2.40;;;;;;;19.42;37.22;95771.97;10489978;28;20065;-47
2022/12/11 14:34:50;;;;;;;3.20;2.40;;;;;;;19.46;37.61;95772.06;10478003;28;20090;-47
2022/12/11 14:40:16;;;;;;;2.45;2.25;;;;;;;19.51;38.08;95777.22;10493748;28;20060;-48
2022/12/11 14:45:38;;;;;;;2.53;2.33;;;;;;;19.54;38.50;95782.72;10483578;28;20052;-47
2022/12/11 14:51:00;;;;;;;2.47;2.10;;;;;;;19.57;38.77;95781.22;10497632;28;20052;-49
2022/12/11 14:56:23;;;;;;;2.58;2.35;;;;;;;19.61;39.08;95786.72;10496557;28;20409;-46
2022/12/11 15:01:42;;;;;;;2.60;2.40;;;;;;;19.66;39.45;95778.34;10511456;28;20048;-48
2022/12/11 15:07:01;;;;;;;2.50;2.30;;;;;;;19.68;39.41;95778.78;10497137;28;20056;-47
2022/12/11 15:12:21;;;;;;;2.40;2.00;;;;;;;19.71;39.52;95772.69;10497878;28;20044;-49
2022/12/11 15:17:40;;;;;;;4.28;2.10;;;;;;;19.72;39.80;95777.00;10497544;28;20078;-43
2022/12/11 15:23:00;;;;;;;2.47;2.05;;;;;;;19.74;40.04;95782.84;10496949;28;20053;-45
2022/12/11 15:28:32;;;;;;;2.03;1.85;;;;;;;19.78;40.66;95781.00;10510476;28;20464;-47
2022/12/11 15:33:51;;;;;;;5.05;3.67;;;;;;;19.82;37.87;95768.34;10506058;28;20059;-46
2022/12/11 15:39:11;;;;;;;3.25;2.40;;;;;;;19.84;39.01;95765.31;10496021;28;20064;-48
2022/12/11 15:44:30;;;;;;;3.30;2.22;;;;;;;19.87;39.55;95764.59;10496609;28;20059;-47
2022/12/11 15:49:59;;;;;;;6.68;2.95;;;;;;;19.91;40.20;95770.88;10495610;28;20056;-50
2022/12/11 15:55:20;;;;;;;3.67;2.65;;;;;;;19.94;40.12;95770.94;10509644;28;20055;-46
2022/12/11 16:00:39;;;;;;;6.18;2.97;;;;;;;19.97;40.70;95774.84;10483124;28;20056;-49
2022/12/11 16:06:02;;;;;;;5.55;2.53;;;;;;;20.02;41.25;95776.53;10484302;28;20392;-47
2022/12/11 16:11:22;;;;;;;3.58;2.67;;;;;;;20.07;41.19;95778.94;10474831;28;20167;-49
2022/12/11 16:16:41;;;;;;;10.38;2.22;;;;;;;20.09;41.49;95782.06;10495032;28;20052;-48
2022/12/11 16:22:00;;;;;;;6.93;5.07;;;;;;;20.14;42.13;95787.22;10495474;28;20365;-47
2022/12/11 16:27:21;;;;;;;7.80;4.78;;;;;;;20.16;42.55;95790.34;10495456;28;20076;-48
2022/12/11 16:32:40;;;;;;;5.82;3.90;;;;;;;20.20;42.90;95793.16;10498000;28;20515;-48
2022/12/11 16:37:59;;;;;;;4.50;3.75;;;;;;;20.23;42.99;95779.72;10494587;28;20055;-48
2022/12/11 16:43:19;;;;;;;4.45;3.42;;;;;;;20.25;43.41;95776.66;10499211;28;20049;-46
2022/12/11 16:48:38;;;;;;;5.35;3.33;;;;;;;20.27;44.08;95772.44;10494547;28;20053;-46
2022/12/11 16:53:58;;;;;;;4.70;2.90;;;;;;;20.29;44.47;95775.59;10508810;28;20041;-46
2022/12/11 16:59:17;;;;;;;4.00;2.92;;;;;;;20.31;44.88;95772.53;10495467;28;20105;-46
2022/12/11 17:04:37;;;;;;;3.08;2.53;;;;;;;20.32;44.82;95764.03;10493387;28;20048;-47
2022/12/11 17:09:57;;;;;;;3.88;2.70;;;;;;;20.34;45.36;95772.59;10495108;28;20052;-48
2022/12/11 17:15:16;;;;;;;7.20;2.63;;;;;;;20.38;44.82;95769.19;10515386;28;20048;-46
2022/12/11 17:20:45;;;;;;;2.83;2.30;;;;;;;20.39;44.80;95774.25;10514903;28;20040;-51
2022/12/11 17:26:09;;;;;;;4.90;2.40;;;;;;;20.41;44.88;95776.59;10500084;28;20102;-47
2022/12/11 17:31:29;;;;;;;3.10;2.45;;;;;;;20.42;44.91;95775.44;10501280;28;20143;-47
2022/12/11 17:36:48;;;;;;;3.80;2.10;;;;;;;20.44;44.96;95770.47;10501490;28;20060;-46
2022/12/11 17:42:07;;;;;;;4.53;1.98;;;;;;;20.47;44.82;95772.47;10501031;28;20098;-46
2022/12/11 17:47:27;;;;;;;2.92;2.20;;;;;;;20.47;45.00;95783.31;10500741;28;20048;-46
2022/12/11 17:52:46;;;;;;;3.10;2.20;;;;;;;20.47;44.93;95777.91;10500946;28;20049;-46
2022/12/11 17:58:06;;;;;;;6.00;2.15;;;;;;;20.48;44.97;95774.84;10497922;28;20053;-48
2022/12/11 18:03:27;;;;;;;4.55;2.13;;;;;;;20.48;44.88;95772.13;10496074;28;20047;-46
2022/12/11 18:08:47;;;;;;;3.40;2.00;;;;;;;20.48;44.94;95774.84;10510369;28;20058;-47
2022/12/11 18:14:07;;;;;;;3.05;1.80;;;;;;;20.48;44.83;95782.94;10496429;28;20045;-47
2022/12/11 18:19:27;;;;;;;4.10;2.10;;;;;;;20.49;44.93;95786.44;10498526;28;20052;-48
2022/12/11 18:24:46;;;;;;;6.10;2.30;;;;;;;20.49;44.80;95791.84;10498558;28;20060;-47
2022/12/11 18:30:06;;;;;;;4.22;2.50;;;;;;;20.49;44.61;95791.84;10499059;28;20055;-49
2022/12/11 18:35:26;;;;;;;5.75;2.15;;;;;;;20.45;44.59;95794.47;10499045;28;20045;-47
2022/12/11 18:40:47;;;;;;;4.93;2.20;;;;;;;20.45;44.63;95788.28;10504477;28;20083;-50
2022/12/11 18:46:08;;;;;;;5.40;2.45;;;;;;;20.44;44.73;95798.31;10498909;28;20059;-48
2022/12/11 18:51:28;;;;;;;4.13;1.92;;;;;;;20.42;44.48;95794.38;10497638;28;20058;-49
2022/12/11 18:56:48;;;;;;;5.00;2.10;;;;;;;20.42;44.59;95802.50;10498539;28;20053;-48
2022/12/11 19:02:09;;;;;;;4.28;2.08;;;;;;;20.41;44.56;95804.44;10497631;28;20048;-46
2022/12/11 19:07:29;;;;;;;4.72;2.28;;;;;;;20.41;44.66;95809.84;10486511;28;20416;-47
2022/12/11 19:12:48;;;;;;;6.63;2.20;;;;;;;20.40;44.86;95792.03;10497560;28;20114;-48
2022/12/11 19:18:09;;;;;;;2.90;2.03;;;;;;;20.40;44.98;95794.75;10474738;28;20059;-48
2022/12/11 19:23:28;;;;;;;2.00;1.70;;;;;;;20.40;45.20;95796.66;10493527;28;20488;-50
2022/12/11 19:28:50;;;;;;;4.32;1.98;;;;;;;20.39;45.21;95795.13;10495901;28;20461;-48
2022/12/11 19:34:10;;;;;;;2.80;1.75;;;;;;;20.37;45.28;95797.38;10464494;28;20049;-47
2022/12/11 19:39:29;;;;;;;3.33;1.73;;;;;;;20.37;45.29;95792.75;10455846;28;20053;-50
2022/12/11 19:44:48;;;;;;;2.55;1.70;;;;;;;20.35;45.24;95785.00;10456986;28;20098;-48
2022/12/11 19:50:09;;;;;;;2.00;1.80;;;;;;;20.35;45.30;95795.03;10487644;28;20060;-49
2022/12/11 19:55:29;;;;;;;2.90;1.95;;;;;;;20.33;45.40;95798.09;10509755;28;20048;-49
2022/12/11 20:00:49;;;;;;;3.03;1.65;;;;;;;20.32;45.54;95806.53;10496490;28;20052;-47
2022/12/11 20:06:08;;;;;;;3.83;1.92;;;;;;;20.32;45.49;95801.13;10496245;28;20101;-45
2022/12/11 20:11:30;;;;;;;3.45;1.73;;;;;;;20.30;45.62;95796.06;10496394;28;20048;-46
2022/12/11 20:16:50;;;;;;;2.20;2.00;;;;;;;20.30;45.81;95800.69;10495304;28;20068;-49
2022/12/11 20:22:10;;;;;;;3.20;1.90;;;;;;;20.27;45.69;95802.19;10495551;28;20431;-48
2022/12/11 20:27:30;;;;;;;2.65;2.00;;;;;;;20.25;45.75;95801.78;10494344;28;20052;-49
2022/12/11 20:32:50;;;;;;;2.60;1.80;;;;;;;20.24;45.55;95805.59;10495154;28;20048;-47
2022/12/11 20:38:10;;;;;;;1.90;1.58;;;;;;;20.23;45.44;95804.03;10489779;28;20542;-47
2022/12/11 20:43:29;;;;;;;3.03;1.85;;;;;;;20.21;45.41;95800.09;10473646;28;20045;-48
2022/12/11 20:48:49;;;;;;;3.03;1.80;;;;;;;20.20;45.42;95804.75;10500347;28;20130;-49
2022/12/11 20:54:09;;;;;;;2.28;1.70;;;;;;;20.20;45.42;95804.75;10499888;28;20428;-47
2022/12/11 20:59:29;;;;;;;2.55;1.67;;;;;;;20.17;45.73;95786.53;10508637;28;20468;-48
2022/12/11 21:04:49;;;;;;;3.00;1.67;;;;;;;20.16;45.71;95782.25;10501136;28;20126;-47
2022/12/11 21:10:08;;;;;;;2.97;2.00;;;;;;;20.13;45.73;95777.53;10502568;28;20106;-45
2022/12/11 21:15:28;;;;;;;2.83;2.13;;;;;;;20.11;45.68;95771.69;10501480;28;20056;-48
2022/12/11 21:20:47;;;;;;;2.67;1.73;;;;;;;20.10;45.75;95784.44;10476050;28;20053;-46
2022/12/11 21:26:07;;;;;;;3.47;1.95;;;;;;;20.08;45.96;95785.94;10498693;28;20384;-48
2022/12/11 21:31:26;;;;;;;5.70;2.60;;;;;;;20.06;45.86;95783.56;10501187;28;20060;-47
2022/12/11 21:36:46;;;;;;;7.18;2.78;;;;;;;20.06;45.86;95788.19;10494146;28;20049;-46
2022/12/11 21:42:06;;;;;;;10.38;3.33;;;;;;;20.04;45.76;95791.25;10465147;28;20053;-46
2022/12/11 21:47:26;;;;;;;8.02;3.20;;;;;;;20.02;46.03;95795.44;10466583;28;20060;-48
2022/12/11 21:52:46;;;;;;;6.68;2.97;;;;;;;20.00;45.94;95790.38;10468802;28;20045;-48
2022/12/11 21:58:06;;;;;;;6.28;2.92;;;;;;;19.98;46.10;95789.97;10467167;28;20523;-49
2022/12/11 22:03:25;;;;;;;9.07;3.15;;;;;;;19.96;46.12;95789.53;10478793;28;20432;-46
2022/12/11 22:08:48;;;;;;;9.00;3.40;;;;;;;19.94;46.21;95787.16;10487794;28;20102;-46
2022/12/11 22:14:09;;;;;;;7.60;2.92;;;;;;;19.93;46.32;95787.50;10500375;28;20052;-49
2022/12/11 22:19:28;;;;;;;6.72;2.72;;;;;;;19.92;46.29;95784.03;10498398;28;20037;-50
2022/12/11 22:24:49;;;;;;;9.32;3.15;;;;;;;19.90;46.25;95782.81;10499934;28;20053;-48
2022/12/11 22:30:10;;;;;;;7.53;3.13;;;;;;;19.88;46.25;95779.69;10512920;28;20044;-48
2022/12/11 22:35:30;;;;;;;5.78;2.50;;;;;;;19.86;46.28;95780.03;10499610;28;20071;-48
2022/12/11 22:40:49;;;;;;;11.00;3.15;;;;;;;19.86;46.48;95784.66;10498644;28;20432;-46
2022/12/11 22:46:14;;;;;;;7.45;2.92;;;;;;;19.84;46.56;95778.81;10512678;28;20044;-46
2022/12/11 22:51:34;;;;;;;7.05;3.30;;;;;;;19.82;46.87;95779.16;10512469;28;20040;-46
2022/12/11 22:56:54;;;;;;;6.47;2.80;;;;;;;19.79;46.74;95769.03;10498746;28;20056;-46
2022/12/11 23:02:14;;;;;;;5.32;2.60;;;;;;;19.79;47.01;95770.97;10506421;28;20466;-48
2022/12/11 23:07:34;;;;;;;6.78;2.60;;;;;;;19.76;46.81;95772.47;10490810;28;20045;-46
2022/12/11 23:12:53;;;;;;;6.15;2.70;;;;;;;19.75;46.88;95768.94;10490185;28;20056;-47
2022/12/11 23:18:12;;;;;;;5.13;2.47;;;;;;;19.73;46.89;95763.13;10497963;28;20060;-47
2022/12/11 23:23:32;;;;;;;5.32;2.33;;;;;;;19.71;46.83;95767.28;10494875;28;20067;-46
2022/12/11 23:28:52;;;;;;;4.72;2.38;;;;;;;19.70;46.85;95768.44;10487503;28;20060;-46
2022/12/11 23:34:11;;;;;;;4.43;2.40;;;;;;;19.68;46.63;95767.97;10491186;28;20496;-49
2022/12/11 23:39:31;;;;;;;5.40;2.40;;;;;;;19.67;46.77;95772.59;10481397;28;20110;-46
2022/12/11 23:44:51;;;;;;;4.20;2.22;;;;;;;19.65;46.60;95779.50;10510249;28;20041;-46
2022/12/11 23:50:10;;;;;;;5.30;2.88;;;;;;;19.63;46.69;95782.53;10504790;28;20488;-45
2022/12/11 23:55:29;;;;;;;4.30;2.33;;;;;;;19.62;46.72;95777.47;10496750;28;20470;-47
